sensor_id;sensor_type;location;lat;lon;timestamp;pressure;altitude;pressure_sealevel;temperature
72405;BMP280;60395;52.020;113.548;2024-01-25T00:02:59;93645.47;;;-13.58
72405;BMP280;60395;52.020;113.548;2024-01-25T00:06:05;93653.13;;;-13.50
72405;BMP280;60395;52.020;113.548;2024-01-25T00:09:08;93657.19;;;-13.47
72405;BMP280;60395;52.020;113.548;2024-01-25T00:12:12;93658.38;;;-13.48
72405;BMP280;60395;52.020;113.548;2024-01-25T00:15:15;93662.75;;;-13.49
72405;BMP280;60395;52.020;113.548;2024-01-25T00:18:19;93662.75;;;-13.49
72405;BMP280;60395;52.020;113.548;2024-01-25T00:21:22;93670.59;;;-13.52
72405;BMP280;60395;52.020;113.548;2024-01-25T00:24:26;93666.44;;;-13.50
72405;BMP280;60395;52.020;113.548;2024-01-25T00:27:29;93672.84;;;-13.49
72405;BMP280;60395;52.020;113.548;2024-01-25T00:30:33;93674.31;;;-13.53
72405;BMP280;60395;52.020;113.548;2024-01-25T00:33:37;93684.81;;;-13.49
72405;BMP280;60395;52.020;113.548;2024-01-25T00:36:41;93685.97;;;-13.50
72405;BMP280;60395;52.020;113.548;2024-01-25T00:39:44;93692.19;;;-13.51
72405;BMP280;60395;52.020;113.548;2024-01-25T00:42:48;93689.47;;;-13.53
72405;BMP280;60395;52.020;113.548;2024-01-25T00:45:58;93690.28;;;-13.58
72405;BMP280;60395;52.020;113.548;2024-01-25T00:49:02;93688.22;;;-13.60
72405;BMP280;60395;52.020;113.548;2024-01-25T00:52:06;93686.66;;;-13.63
72405;BMP280;60395;52.020;113.548;2024-01-25T00:55:10;93691.72;;;-13.63
72405;BMP280;60395;52.020;113.548;2024-01-25T00:58:14;93694.91;;;-13.62
72405;BMP280;60395;52.020;113.548;2024-01-25T01:01:21;93691.22;;;-13.61
72405;BMP280;60395;52.020;113.548;2024-01-25T01:04:26;93694.75;;;-13.64
72405;BMP280;60395;52.020;113.548;2024-01-25T01:07:29;93692.22;;;-13.64
72405;BMP280;60395;52.020;113.548;2024-01-25T01:10:33;93699.09;;;-13.65
72405;BMP280;60395;52.020;113.548;2024-01-25T01:13:37;93691.91;;;-13.61
72405;BMP280;60395;52.020;113.548;2024-01-25T01:16:40;93701.41;;;-13.54
72405;BMP280;60395;52.020;113.548;2024-01-25T01:19:44;93684.97;;;-13.47
72405;BMP280;60395;52.020;113.548;2024-01-25T01:22:47;93701.09;;;-13.37
72405;BMP280;60395;52.020;113.548;2024-01-25T01:25:51;93695.94;;;-13.31
72405;BMP280;60395;52.020;113.548;2024-01-25T01:28:55;93706.78;;;-13.23
72405;BMP280;60395;52.020;113.548;2024-01-25T01:31:58;93708.16;;;-13.22
72405;BMP280;60395;52.020;113.548;2024-01-25T01:35:01;93731.22;;;-13.26
72405;BMP280;60395;52.020;113.548;2024-01-25T01:38:05;93723.63;;;-13.26
72405;BMP280;60395;52.020;113.548;2024-01-25T01:41:12;93732.38;;;-13.27
72405;BMP280;60395;52.020;113.548;2024-01-25T01:44:18;93737.50;;;-13.19
72405;BMP280;60395;52.020;113.548;2024-01-25T01:47:21;93742.84;;;-13.10
72405;BMP280;60395;52.020;113.548;2024-01-25T01:50:25;93747.84;;;-12.96
72405;BMP280;60395;52.020;113.548;2024-01-25T01:53:32;93749.78;;;-12.89
72405;BMP280;60395;52.020;113.548;2024-01-25T01:56:35;93755.09;;;-12.80
72405;BMP280;60395;52.020;113.548;2024-01-25T01:59:39;93756.53;;;-12.71
72405;BMP280;60395;52.020;113.548;2024-01-25T02:02:43;93758.50;;;-12.56
72405;BMP280;60395;52.020;113.548;2024-01-25T02:05:48;93750.81;;;-12.51
72405;BMP280;60395;52.020;113.548;2024-01-25T02:08:53;93759.81;;;-12.42
72405;BMP280;60395;52.020;113.548;2024-01-25T02:12:03;93753.63;;;-12.33
72405;BMP280;60395;52.020;113.548;2024-01-25T02:15:07;93762.84;;;-12.23
72405;BMP280;60395;52.020;113.548;2024-01-25T02:18:10;93739.47;;;-12.08
72405;BMP280;60395;52.020;113.548;2024-01-25T02:21:15;93750.69;;;-11.96
72405;BMP280;60395;52.020;113.548;2024-01-25T02:24:18;93742.31;;;-11.83
72405;BMP280;60395;52.020;113.548;2024-01-25T02:27:22;93744.41;;;-11.74
72405;BMP280;60395;52.020;113.548;2024-01-25T02:30:25;93740.75;;;-11.65
72405;BMP280;60395;52.020;113.548;2024-01-25T02:33:29;93742.78;;;-11.56
72405;BMP280;60395;52.020;113.548;2024-01-25T02:36:33;93751.47;;;-11.44
72405;BMP280;60395;52.020;113.548;2024-01-25T02:39:37;93767.59;;;-11.26
72405;BMP280;60395;52.020;113.548;2024-01-25T02:42:40;93766.25;;;-11.20
72405;BMP280;60395;52.020;113.548;2024-01-25T02:45:43;93774.75;;;-11.10
72405;BMP280;60395;52.020;113.548;2024-01-25T02:48:48;93778.16;;;-10.99
72405;BMP280;60395;52.020;113.548;2024-01-25T02:51:52;93775.28;;;-10.96
72405;BMP280;60395;52.020;113.548;2024-01-25T02:54:56;93783.63;;;-10.88
72405;BMP280;60395;52.020;113.548;2024-01-25T02:58:01;93786.16;;;-10.80
72405;BMP280;60395;52.020;113.548;2024-01-25T03:01:05;93783.66;;;-10.73
72405;BMP280;60395;52.020;113.548;2024-01-25T03:04:09;93791.25;;;-10.65
72405;BMP280;60395;52.020;113.548;2024-01-25T03:07:12;93786.19;;;-10.57
72405;BMP280;60395;52.020;113.548;2024-01-25T03:10:16;93791.78;;;-10.51
72405;BMP280;60395;52.020;113.548;2024-01-25T03:13:20;93780.25;;;-10.52
72405;BMP280;60395;52.020;113.548;2024-01-25T03:16:23;93773.16;;;-10.46
72405;BMP280;60395;52.020;113.548;2024-01-25T03:19:27;93778.94;;;-10.38
72405;BMP280;60395;52.020;113.548;2024-01-25T03:22:31;93775.88;;;-10.29
72405;BMP280;60395;52.020;113.548;2024-01-25T03:25:34;93790.59;;;-10.20
72405;BMP280;60395;52.020;113.548;2024-01-25T03:28:38;93784.84;;;-10.13
72405;BMP280;60395;52.020;113.548;2024-01-25T03:31:43;93789.41;;;-10.04
72405;BMP280;60395;52.020;113.548;2024-01-25T03:34:47;93782.97;;;-9.97
72405;BMP280;60395;52.020;113.548;2024-01-25T03:37:50;93783.66;;;-9.89
72405;BMP280;60395;52.020;113.548;2024-01-25T03:40:54;93784.47;;;-9.79
72405;BMP280;60395;52.020;113.548;2024-01-25T03:43:59;93780.38;;;-9.67
72405;BMP280;60395;52.020;113.548;2024-01-25T03:47:03;93791.19;;;-9.58
72405;BMP280;60395;52.020;113.548;2024-01-25T03:50:09;93791.34;;;-9.49
72405;BMP280;60395;52.020;113.548;2024-01-25T03:53:12;93788.41;;;-9.38
72405;BMP280;60395;52.020;113.548;2024-01-25T03:56:16;93788.88;;;-9.24
72405;BMP280;60395;52.020;113.548;2024-01-25T03:59:22;93791.38;;;-9.09
72405;BMP280;60395;52.020;113.548;2024-01-25T04:02:26;93787.63;;;-9.00
72405;BMP280;60395;52.020;113.548;2024-01-25T04:05:29;93793.50;;;-8.90
72405;BMP280;60395;52.020;113.548;2024-01-25T04:08:33;93785.97;;;-8.80
72405;BMP280;60395;52.020;113.548;2024-01-25T04:11:39;93779.13;;;-8.70
72405;BMP280;60395;52.020;113.548;2024-01-25T04:14:43;93780.41;;;-8.62
72405;BMP280;60395;52.020;113.548;2024-01-25T04:17:46;93792.06;;;-8.51
72405;BMP280;60395;52.020;113.548;2024-01-25T04:20:50;93790.13;;;-8.43
72405;BMP280;60395;52.020;113.548;2024-01-25T04:23:54;93781.25;;;-8.34
72405;BMP280;60395;52.020;113.548;2024-01-25T04:26:57;93788.97;;;-8.25
72405;BMP280;60395;52.020;113.548;2024-01-25T04:30:02;93779.75;;;-8.20
72405;BMP280;60395;52.020;113.548;2024-01-25T04:33:06;93778.81;;;-8.07
72405;BMP280;60395;52.020;113.548;2024-01-25T04:36:10;93785.28;;;-7.89
72405;BMP280;60395;52.020;113.548;2024-01-25T04:39:13;93791.88;;;-7.86
72405;BMP280;60395;52.020;113.548;2024-01-25T04:42:17;93787.75;;;-7.82
72405;BMP280;60395;52.020;113.548;2024-01-25T04:45:21;93781.84;;;-7.84
72405;BMP280;60395;52.020;113.548;2024-01-25T04:48:24;93779.41;;;-7.82
72405;BMP280;60395;52.020;113.548;2024-01-25T04:51:28;93772.06;;;-7.78
72405;BMP280;60395;52.020;113.548;2024-01-25T04:54:32;93775.63;;;-7.73
72405;BMP280;60395;52.020;113.548;2024-01-25T04:57:35;93781.16;;;-7.67
72405;BMP280;60395;52.020;113.548;2024-01-25T05:00:39;93788.47;;;-7.54
72405;BMP280;60395;52.020;113.548;2024-01-25T05:03:43;93789.31;;;-7.52
72405;BMP280;60395;52.020;113.548;2024-01-25T05:06:46;93779.25;;;-7.50
72405;BMP280;60395;52.020;113.548;2024-01-25T05:09:50;93783.59;;;-7.42
72405;BMP280;60395;52.020;113.548;2024-01-25T05:12:53;93780.88;;;-7.45
72405;BMP280;60395;52.020;113.548;2024-01-25T05:15:57;93787.00;;;-7.40
72405;BMP280;60395;52.020;113.548;2024-01-25T05:19:00;93781.63;;;-7.34
72405;BMP280;60395;52.020;113.548;2024-01-25T05:22:04;93769.97;;;-7.28
72405;BMP280;60395;52.020;113.548;2024-01-25T05:25:09;93768.09;;;-7.27
72405;BMP280;60395;52.020;113.548;2024-01-25T05:28:13;93766.09;;;-7.29
72405;BMP280;60395;52.020;113.548;2024-01-25T05:31:16;93762.31;;;-7.28
72405;BMP280;60395;52.020;113.548;2024-01-25T05:34:20;93760.66;;;-7.16
72405;BMP280;60395;52.020;113.548;2024-01-25T05:37:23;93768.19;;;-7.08
72405;BMP280;60395;52.020;113.548;2024-01-25T05:40:27;93760.16;;;-7.04
72405;BMP280;60395;52.020;113.548;2024-01-25T05:43:31;93756.31;;;-6.96
72405;BMP280;60395;52.020;113.548;2024-01-25T05:46:36;93755.66;;;-6.87
72405;BMP280;60395;52.020;113.548;2024-01-25T05:49:42;93756.38;;;-6.77
72405;BMP280;60395;52.020;113.548;2024-01-25T05:52:46;93752.53;;;-6.68
72405;BMP280;60395;52.020;113.548;2024-01-25T05:55:50;93752.91;;;-6.62
72405;BMP280;60395;52.020;113.548;2024-01-25T05:58:54;93753.88;;;-6.57
72405;BMP280;60395;52.020;113.548;2024-01-25T06:01:57;93754.69;;;-6.55
72405;BMP280;60395;52.020;113.548;2024-01-25T06:05:01;93750.94;;;-6.54
72405;BMP280;60395;52.020;113.548;2024-01-25T06:08:05;93752.53;;;-6.49
72405;BMP280;60395;52.020;113.548;2024-01-25T06:11:08;93754.44;;;-6.49
72405;BMP280;60395;52.020;113.548;2024-01-25T06:14:12;93750.94;;;-6.44
72405;BMP280;60395;52.020;113.548;2024-01-25T06:17:16;93754.06;;;-6.36
72405;BMP280;60395;52.020;113.548;2024-01-25T06:20:19;93756.78;;;-6.24
72405;BMP280;60395;52.020;113.548;2024-01-25T06:23:23;93758.25;;;-6.02
72405;BMP280;60395;52.020;113.548;2024-01-25T06:26:26;93753.78;;;-5.73
72405;BMP280;60395;52.020;113.548;2024-01-25T06:29:29;93746.25;;;-5.61
72405;BMP280;60395;52.020;113.548;2024-01-25T06:32:33;93748.03;;;-5.64
72405;BMP280;60395;52.020;113.548;2024-01-25T06:35:36;93744.25;;;-5.72
72405;BMP280;60395;52.020;113.548;2024-01-25T06:38:40;93746.28;;;-5.80
72405;BMP280;60395;52.020;113.548;2024-01-25T06:41:43;93746.16;;;-5.92
72405;BMP280;60395;52.020;113.548;2024-01-25T06:44:46;93750.72;;;-6.00
72405;BMP280;60395;52.020;113.548;2024-01-25T06:47:50;93753.00;;;-6.04
72405;BMP280;60395;52.020;113.548;2024-01-25T06:50:54;93747.34;;;-6.03
72405;BMP280;60395;52.020;113.548;2024-01-25T06:53:57;93756.22;;;-6.04
72405;BMP280;60395;52.020;113.548;2024-01-25T06:57:00;93762.03;;;-6.03
72405;BMP280;60395;52.020;113.548;2024-01-25T07:00:04;93759.22;;;-6.07
72405;BMP280;60395;52.020;113.548;2024-01-25T07:03:08;93749.38;;;-6.11
72405;BMP280;60395;52.020;113.548;2024-01-25T07:06:12;93754.63;;;-6.09
72405;BMP280;60395;52.020;113.548;2024-01-25T07:09:15;93750.56;;;-6.12
72405;BMP280;60395;52.020;113.548;2024-01-25T07:12:19;93751.94;;;-6.11
72405;BMP280;60395;52.020;113.548;2024-01-25T07:15:22;93752.47;;;-6.12
72405;BMP280;60395;52.020;113.548;2024-01-25T07:18:26;93753.56;;;-6.15
72405;BMP280;60395;52.020;113.548;2024-01-25T07:21:29;93752.72;;;-6.18
72405;BMP280;60395;52.020;113.548;2024-01-25T07:24:35;93756.50;;;-6.19
72405;BMP280;60395;52.020;113.548;2024-01-25T07:27:38;93755.28;;;-6.18
72405;BMP280;60395;52.020;113.548;2024-01-25T07:30:42;93758.25;;;-6.21
72405;BMP280;60395;52.020;113.548;2024-01-25T07:33:46;93761.75;;;-6.26
72405;BMP280;60395;52.020;113.548;2024-01-25T07:36:49;93767.38;;;-6.28
72405;BMP280;60395;52.020;113.548;2024-01-25T07:39:53;93759.56;;;-6.30
72405;BMP280;60395;52.020;113.548;2024-01-25T07:42:56;93767.25;;;-6.30
72405;BMP280;60395;52.020;113.548;2024-01-25T07:46:00;93771.31;;;-6.08
72405;BMP280;60395;52.020;113.548;2024-01-25T07:49:04;93770.09;;;-5.49
72405;BMP280;60395;52.020;113.548;2024-01-25T07:52:08;93778.56;;;-5.37
72405;BMP280;60395;52.020;113.548;2024-01-25T07:55:12;93781.69;;;-5.57
72405;BMP280;60395;52.020;113.548;2024-01-25T07:58:15;93784.38;;;-5.84
72405;BMP280;60395;52.020;113.548;2024-01-25T08:01:19;93783.53;;;-6.06
72405;BMP280;60395;52.020;113.548;2024-01-25T08:04:24;93788.38;;;-6.29
72405;BMP280;60395;52.020;113.548;2024-01-25T08:07:28;93781.09;;;-6.43
72405;BMP280;60395;52.020;113.548;2024-01-25T08:10:31;93782.53;;;-6.49
72405;BMP280;60395;52.020;113.548;2024-01-25T08:13:35;93788.56;;;-6.64
72405;BMP280;60395;52.020;113.548;2024-01-25T08:16:39;93786.34;;;-6.77
72405;BMP280;60395;52.020;113.548;2024-01-25T08:19:42;93786.03;;;-6.91
72405;BMP280;60395;52.020;113.548;2024-01-25T08:22:46;93775.47;;;-7.04
72405;BMP280;60395;52.020;113.548;2024-01-25T08:26:04;93778.91;;;-7.19
72405;BMP280;60395;52.020;113.548;2024-01-25T08:29:23;93786.19;;;-7.33
72405;BMP280;60395;52.020;113.548;2024-01-25T08:32:40;93785.34;;;-7.45
72405;BMP280;60395;52.020;113.548;2024-01-25T08:35:47;93785.44;;;-7.53
72405;BMP280;60395;52.020;113.548;2024-01-25T08:39:26;93784.28;;;-7.59
72405;BMP280;60395;52.020;113.548;2024-01-25T08:42:42;93786.78;;;-7.69
72405;BMP280;60395;52.020;113.548;2024-01-25T08:46:18;93784.97;;;-7.76
72405;BMP280;60395;52.020;113.548;2024-01-25T08:49:49;93783.56;;;-7.87
72405;BMP280;60395;52.020;113.548;2024-01-25T08:52:59;93784.38;;;-8.01
72405;BMP280;60395;52.020;113.548;2024-01-25T08:56:13;93785.03;;;-8.18
72405;BMP280;60395;52.020;113.548;2024-01-25T08:59:47;93793.97;;;-8.34
72405;BMP280;60395;52.020;113.548;2024-01-25T09:03:17;93799.06;;;-8.59
72405;BMP280;60395;52.020;113.548;2024-01-25T09:06:29;93789.22;;;-8.87
72405;BMP280;60395;52.020;113.548;2024-01-25T09:09:37;93789.53;;;-9.16
72405;BMP280;60395;52.020;113.548;2024-01-25T09:13:06;93795.69;;;-9.27
72405;BMP280;60395;52.020;113.548;2024-01-25T09:16:09;93801.50;;;-9.34
72405;BMP280;60395;52.020;113.548;2024-01-25T09:19:13;93804.72;;;-9.41
72405;BMP280;60395;52.020;113.548;2024-01-25T09:22:18;93800.69;;;-9.51
72405;BMP280;60395;52.020;113.548;2024-01-25T09:25:24;93807.31;;;-9.64
72405;BMP280;60395;52.020;113.548;2024-01-25T09:28:29;93810.03;;;-9.77
72405;BMP280;60395;52.020;113.548;2024-01-25T09:31:32;93804.31;;;-9.92
72405;BMP280;60395;52.020;113.548;2024-01-25T09:34:39;93807.38;;;-10.02
72405;BMP280;60395;52.020;113.548;2024-01-25T09:37:43;93809.56;;;-10.13
72405;BMP280;60395;52.020;113.548;2024-01-25T09:40:46;93810.25;;;-10.36
72405;BMP280;60395;52.020;113.548;2024-01-25T09:43:52;93813.44;;;-10.58
72405;BMP280;60395;52.020;113.548;2024-01-25T09:46:56;93814.94;;;-10.70
72405;BMP280;60395;52.020;113.548;2024-01-25T09:50:00;93814.94;;;-10.70
72405;BMP280;60395;52.020;113.548;2024-01-25T09:53:05;93831.03;;;-10.60
72405;BMP280;60395;52.020;113.548;2024-01-25T09:56:12;93828.66;;;-10.50
72405;BMP280;60395;52.020;113.548;2024-01-25T09:59:20;93823.28;;;-10.47
72405;BMP280;60395;52.020;113.548;2024-01-25T10:02:27;93823.44;;;-10.45
72405;BMP280;60395;52.020;113.548;2024-01-25T10:05:31;93824.81;;;-10.44
72405;BMP280;60395;52.020;113.548;2024-01-25T10:08:35;93829.03;;;-10.46
72405;BMP280;60395;52.020;113.548;2024-01-25T10:11:39;93825.13;;;-10.47
72405;BMP280;60395;52.020;113.548;2024-01-25T10:14:57;93834.06;;;-10.54
72405;BMP280;60395;52.020;113.548;2024-01-25T10:18:05;93825.44;;;-10.66
72405;BMP280;60395;52.020;113.548;2024-01-25T10:21:30;93825.56;;;-10.79
72405;BMP280;60395;52.020;113.548;2024-01-25T10:24:34;93829.94;;;-10.87
72405;BMP280;60395;52.020;113.548;2024-01-25T10:27:38;93835.50;;;-10.96
72405;BMP280;60395;52.020;113.548;2024-01-25T10:30:46;93839.72;;;-10.99
72405;BMP280;60395;52.020;113.548;2024-01-25T10:33:53;93843.09;;;-10.96
72405;BMP280;60395;52.020;113.548;2024-01-25T10:37:00;93843.59;;;-10.98
72405;BMP280;60395;52.020;113.548;2024-01-25T10:40:05;93837.34;;;-10.97
72405;BMP280;60395;52.020;113.548;2024-01-25T10:43:11;93846.19;;;-10.90
72405;BMP280;60395;52.020;113.548;2024-01-25T10:46:16;93830.94;;;-10.98
72405;BMP280;60395;52.020;113.548;2024-01-25T10:49:20;93852.13;;;-10.88
72405;BMP280;60395;52.020;113.548;2024-01-25T10:52:26;93849.41;;;-10.90
72405;BMP280;60395;52.020;113.548;2024-01-25T10:55:31;93853.56;;;-11.00
72405;BMP280;60395;52.020;113.548;2024-01-25T10:58:41;93852.69;;;-11.10
72405;BMP280;60395;52.020;113.548;2024-01-25T11:01:48;93852.84;;;-11.16
72405;BMP280;60395;52.020;113.548;2024-01-25T11:04:54;93850.63;;;-11.19
72405;BMP280;60395;52.020;113.548;2024-01-25T11:08:00;93856.38;;;-11.19
72405;BMP280;60395;52.020;113.548;2024-01-25T11:11:11;93857.53;;;-11.20
72405;BMP280;60395;52.020;113.548;2024-01-25T11:14:19;93856.22;;;-11.21
72405;BMP280;60395;52.020;113.548;2024-01-25T11:17:26;93856.16;;;-11.28
72405;BMP280;60395;52.020;113.548;2024-01-25T11:20:36;93857.78;;;-11.39
72405;BMP280;60395;52.020;113.548;2024-01-25T11:23:44;93864.06;;;-11.60
72405;BMP280;60395;52.020;113.548;2024-01-25T11:26:56;93859.91;;;-11.79
72405;BMP280;60395;52.020;113.548;2024-01-25T11:30:05;93860.97;;;-11.95
72405;BMP280;60395;52.020;113.548;2024-01-25T11:33:14;93863.44;;;-12.02
72405;BMP280;60395;52.020;113.548;2024-01-25T11:36:26;93859.47;;;-12.11
72405;BMP280;60395;52.020;113.548;2024-01-25T11:39:32;93859.03;;;-12.02
72405;BMP280;60395;52.020;113.548;2024-01-25T11:42:35;93867.25;;;-11.88
72405;BMP280;60395;52.020;113.548;2024-01-25T11:45:39;93867.44;;;-11.86
72405;BMP280;60395;52.020;113.548;2024-01-25T11:48:46;93867.88;;;-11.95
72405;BMP280;60395;52.020;113.548;2024-01-25T11:51:50;93866.34;;;-11.98
72405;BMP280;60395;52.020;113.548;2024-01-25T11:54:54;93872.25;;;-11.96
72405;BMP280;60395;52.020;113.548;2024-01-25T11:57:58;93873.00;;;-11.88
72405;BMP280;60395;52.020;113.548;2024-01-25T12:01:02;93879.28;;;-11.81
72405;BMP280;60395;52.020;113.548;2024-01-25T12:04:09;93874.59;;;-11.77
72405;BMP280;60395;52.020;113.548;2024-01-25T12:07:12;93877.69;;;-11.71
72405;BMP280;60395;52.020;113.548;2024-01-25T12:10:16;93871.53;;;-11.76
72405;BMP280;60395;52.020;113.548;2024-01-25T12:13:20;93870.91;;;-11.76
72405;BMP280;60395;52.020;113.548;2024-01-25T12:16:24;93878.91;;;-11.85
72405;BMP280;60395;52.020;113.548;2024-01-25T12:19:28;93884.59;;;-11.92
72405;BMP280;60395;52.020;113.548;2024-01-25T12:22:32;93885.72;;;-12.01
72405;BMP280;60395;52.020;113.548;2024-01-25T12:25:39;93879.94;;;-12.09
72405;BMP280;60395;52.020;113.548;2024-01-25T12:28:44;93878.59;;;-12.23
72405;BMP280;60395;52.020;113.548;2024-01-25T12:31:47;93883.41;;;-12.33
72405;BMP280;60395;52.020;113.548;2024-01-25T12:34:55;93883.22;;;-12.35
72405;BMP280;60395;52.020;113.548;2024-01-25T12:37:59;93877.75;;;-12.39
72405;BMP280;60395;52.020;113.548;2024-01-25T12:41:02;93882.97;;;-12.45
72405;BMP280;60395;52.020;113.548;2024-01-25T12:44:07;93887.22;;;-12.39
72405;BMP280;60395;52.020;113.548;2024-01-25T12:47:10;93884.47;;;-12.28
72405;BMP280;60395;52.020;113.548;2024-01-25T12:50:15;93887.91;;;-12.18
72405;BMP280;60395;52.020;113.548;2024-01-25T12:53:19;93884.09;;;-12.12
72405;BMP280;60395;52.020;113.548;2024-01-25T12:56:22;93885.28;;;-12.13
72405;BMP280;60395;52.020;113.548;2024-01-25T12:59:26;93880.88;;;-12.12
72405;BMP280;60395;52.020;113.548;2024-01-25T13:02:29;93883.78;;;-12.08
72405;BMP280;60395;52.020;113.548;2024-01-25T13:05:34;93889.38;;;-12.10
72405;BMP280;60395;52.020;113.548;2024-01-25T13:08:37;93884.59;;;-12.13
72405;BMP280;60395;52.020;113.548;2024-01-25T13:11:41;93880.88;;;-12.12
72405;BMP280;60395;52.020;113.548;2024-01-25T13:14:45;93880.22;;;-12.13
72405;BMP280;60395;52.020;113.548;2024-01-25T13:17:48;93887.13;;;-12.13
72405;BMP280;60395;52.020;113.548;2024-01-25T13:20:52;93882.25;;;-12.11
72405;BMP280;60395;52.020;113.548;2024-01-25T13:23:55;93877.19;;;-12.11
72405;BMP280;60395;52.020;113.548;2024-01-25T13:26:59;93872.78;;;-12.11
72405;BMP280;60395;52.020;113.548;2024-01-25T13:30:04;93875.63;;;-12.14
72405;BMP280;60395;52.020;113.548;2024-01-25T13:33:08;93876.66;;;-12.17
72405;BMP280;60395;52.020;113.548;2024-01-25T13:36:11;93876.25;;;-12.21
72405;BMP280;60395;52.020;113.548;2024-01-25T13:39:17;93875.75;;;-12.20
72405;BMP280;60395;52.020;113.548;2024-01-25T13:42:21;93874.00;;;-12.25
72405;BMP280;60395;52.020;113.548;2024-01-25T13:45:24;93874.34;;;-12.28
72405;BMP280;60395;52.020;113.548;2024-01-25T13:48:28;93877.66;;;-12.33
72405;BMP280;60395;52.020;113.548;2024-01-25T13:51:33;93870.50;;;-12.43
72405;BMP280;60395;52.020;113.548;2024-01-25T13:54:37;93882.28;;;-12.58
72405;BMP280;60395;52.020;113.548;2024-01-25T13:57:40;93875.44;;;-12.71
72405;BMP280;60395;52.020;113.548;2024-01-25T14:00:44;93885.91;;;-12.80
72405;BMP280;60395;52.020;113.548;2024-01-25T14:03:48;93888.56;;;-12.86
72405;BMP280;60395;52.020;113.548;2024-01-25T14:06:51;93886.22;;;-12.84
72405;BMP280;60395;52.020;113.548;2024-01-25T14:09:55;93883.31;;;-12.88
72405;BMP280;60395;52.020;113.548;2024-01-25T14:12:58;93888.84;;;-12.89
72405;BMP280;60395;52.020;113.548;2024-01-25T14:16:02;93891.00;;;-12.93
72405;BMP280;60395;52.020;113.548;2024-01-25T14:19:06;93887.78;;;-12.94
72405;BMP280;60395;52.020;113.548;2024-01-25T14:22:10;93891.13;;;-12.99
72405;BMP280;60395;52.020;113.548;2024-01-25T14:25:30;93893.41;;;-13.01
72405;BMP280;60395;52.020;113.548;2024-01-25T14:28:34;93888.00;;;-13.05
72405;BMP280;60395;52.020;113.548;2024-01-25T14:31:37;93886.94;;;-13.10
72405;BMP280;60395;52.020;113.548;2024-01-25T14:34:41;93895.28;;;-13.15
72405;BMP280;60395;52.020;113.548;2024-01-25T14:37:45;93892.44;;;-13.24
72405;BMP280;60395;52.020;113.548;2024-01-25T14:40:48;93898.47;;;-13.27
72405;BMP280;60395;52.020;113.548;2024-01-25T14:44:00;93894.66;;;-13.34
72405;BMP280;60395;52.020;113.548;2024-01-25T14:47:04;93900.50;;;-13.39
72405;BMP280;60395;52.020;113.548;2024-01-25T14:50:08;93900.88;;;-13.48
72405;BMP280;60395;52.020;113.548;2024-01-25T14:53:11;93901.25;;;-13.57
72405;BMP280;60395;52.020;113.548;2024-01-25T14:56:15;93905.59;;;-13.71
72405;BMP280;60395;52.020;113.548;2024-01-25T14:59:19;93901.94;;;-13.89
72405;BMP280;60395;52.020;113.548;2024-01-25T15:02:22;93899.38;;;-14.21
72405;BMP280;60395;52.020;113.548;2024-01-25T15:05:27;93896.75;;;-14.47
72405;BMP280;60395;52.020;113.548;2024-01-25T15:08:31;93891.09;;;-14.78
72405;BMP280;60395;52.020;113.548;2024-01-25T15:11:34;93888.28;;;-14.93
72405;BMP280;60395;52.020;113.548;2024-01-25T15:14:37;93886.97;;;-14.99
72405;BMP280;60395;52.020;113.548;2024-01-25T15:17:41;93891.28;;;-14.94
72405;BMP280;60395;52.020;113.548;2024-01-25T15:20:44;93878.41;;;-14.91
72405;BMP280;60395;52.020;113.548;2024-01-25T15:23:48;93886.38;;;-14.87
72405;BMP280;60395;52.020;113.548;2024-01-25T15:26:51;93889.66;;;-14.92
72405;BMP280;60395;52.020;113.548;2024-01-25T15:29:55;93886.53;;;-14.79
72405;BMP280;60395;52.020;113.548;2024-01-25T15:32:58;93887.50;;;-14.63
72405;BMP280;60395;52.020;113.548;2024-01-25T15:36:02;93885.97;;;-14.48
72405;BMP280;60395;52.020;113.548;2024-01-25T15:39:07;93885.16;;;-14.37
72405;BMP280;60395;52.020;113.548;2024-01-25T15:42:11;93890.06;;;-14.26
72405;BMP280;60395;52.020;113.548;2024-01-25T15:45:14;93892.59;;;-14.26
72405;BMP280;60395;52.020;113.548;2024-01-25T15:48:18;93890.25;;;-14.24
72405;BMP280;60395;52.020;113.548;2024-01-25T15:51:22;93884.84;;;-14.33
72405;BMP280;60395;52.020;113.548;2024-01-25T15:54:28;93884.13;;;-14.47
72405;BMP280;60395;52.020;113.548;2024-01-25T15:57:32;93883.75;;;-14.76
72405;BMP280;60395;52.020;113.548;2024-01-25T16:00:35;93885.38;;;-14.97
72405;BMP280;60395;52.020;113.548;2024-01-25T16:03:39;93874.78;;;-15.14
72405;BMP280;60395;52.020;113.548;2024-01-25T16:06:42;93872.78;;;-15.27
72405;BMP280;60395;52.020;113.548;2024-01-25T16:09:46;93875.25;;;-15.46
72405;BMP280;60395;52.020;113.548;2024-01-25T16:12:49;93870.66;;;-15.42
72405;BMP280;60395;52.020;113.548;2024-01-25T16:15:53;93879.31;;;-15.37
72405;BMP280;60395;52.020;113.548;2024-01-25T16:18:56;93871.38;;;-15.22
72405;BMP280;60395;52.020;113.548;2024-01-25T16:22:02;93859.38;;;-15.11
72405;BMP280;60395;52.020;113.548;2024-01-25T16:25:06;93861.41;;;-15.09
72405;BMP280;60395;52.020;113.548;2024-01-25T16:28:10;93854.75;;;-15.06
72405;BMP280;60395;52.020;113.548;2024-01-25T16:31:13;93845.28;;;-15.00
72405;BMP280;60395;52.020;113.548;2024-01-25T16:34:17;93849.91;;;-15.04
72405;BMP280;60395;52.020;113.548;2024-01-25T16:37:21;93856.50;;;-15.20
72405;BMP280;60395;52.020;113.548;2024-01-25T16:40:24;93847.81;;;-15.49
72405;BMP280;60395;52.020;113.548;2024-01-25T16:43:28;93858.06;;;-15.71
72405;BMP280;60395;52.020;113.548;2024-01-25T16:46:31;93855.22;;;-15.87
72405;BMP280;60395;52.020;113.548;2024-01-25T16:49:34;93856.13;;;-15.90
72405;BMP280;60395;52.020;113.548;2024-01-25T16:52:38;93849.25;;;-15.89
72405;BMP280;60395;52.020;113.548;2024-01-25T16:55:41;93850.88;;;-15.86
72405;BMP280;60395;52.020;113.548;2024-01-25T16:58:45;93846.53;;;-15.86
72405;BMP280;60395;52.020;113.548;2024-01-25T17:01:48;93850.09;;;-15.76
72405;BMP280;60395;52.020;113.548;2024-01-25T17:04:52;93856.19;;;-15.65
72405;BMP280;60395;52.020;113.548;2024-01-25T17:07:55;93857.28;;;-15.61